createdAt,value
2017-12-22T00:00:38.579Z,95620.11
2017-12-22T00:03:06.387Z,95615.25
2017-12-22T00:05:34.175Z,95624.30
2017-12-22T00:08:01.919Z,95619.34
2017-12-22T00:10:29.728Z,95610.66
2017-12-22T00:12:57.449Z,95620.63
2017-12-22T00:15:25.152Z,95613.47
2017-12-22T00:17:52.809Z,95618.08
2017-12-22T00:20:20.540Z,95613.89
2017-12-22T00:22:48.239Z,95610.87
2017-12-22T00:25:15.987Z,95604.72
2017-12-22T00:27:43.688Z,95605.20
2017-12-22T00:30:11.368Z,95601.14
2017-12-22T00:32:39.092Z,95602.22
2017-12-22T00:35:06.776Z,95607.94
2017-12-22T00:37:34.511Z,95608.70
2017-12-22T00:40:02.221Z,95605.27
2017-12-22T00:42:29.952Z,95603.52
2017-12-22T00:44:57.639Z,95597.38
2017-12-22T00:47:25.410Z,95597.66
2017-12-22T00:49:53.163Z,95591.64
2017-12-22T00:52:20.831Z,95589.80
2017-12-22T00:54:48.564Z,95585.16
2017-12-22T00:57:16.294Z,95582.51
2017-12-22T00:59:44.081Z,95583.40
2017-12-22T01:02:11.793Z,95582.72
2017-12-22T01:04:39.839Z,95579.21
2017-12-22T01:07:07.595Z,95575.34
2017-12-22T01:09:35.356Z,95580.44
2017-12-22T01:12:03.026Z,95575.32
2017-12-22T01:14:30.725Z,95584.69
2017-12-22T01:17:04.019Z,95575.70
2017-12-22T01:19:31.745Z,95583.80
2017-12-22T01:22:00.029Z,95576.70
2017-12-22T01:24:27.768Z,95588.30
2017-12-22T01:26:55.641Z,95576.69
2017-12-22T01:29:23.321Z,95578.84
2017-12-22T01:31:51.148Z,95584.77
2017-12-22T01:34:18.833Z,95579.03
2017-12-22T01:36:47.100Z,95580.94
2017-12-22T01:39:14.877Z,95572.45
2017-12-22T01:41:42.654Z,95577.53
2017-12-22T01:44:10.332Z,95570.45
2017-12-22T01:46:38.076Z,95562.12
2017-12-22T01:49:05.798Z,95567.88
2017-12-22T01:51:34.047Z,95560.45
2017-12-22T01:54:01.794Z,95561.59
2017-12-22T01:56:29.521Z,95565.16
2017-12-22T01:58:58.268Z,95560.38
2017-12-22T02:01:26.225Z,95565.25
2017-12-22T02:03:53.995Z,95564.09
2017-12-22T02:06:21.711Z,95560.23
2017-12-22T02:08:49.442Z,95567.11
2017-12-22T02:11:17.163Z,95560.23
2017-12-22T02:13:44.898Z,95558.82
2017-12-22T02:16:12.605Z,95555.53
2017-12-22T02:18:40.651Z,95560.39
2017-12-22T02:21:08.351Z,95552.61
2017-12-22T02:23:36.080Z,95551.78
2017-12-22T02:26:03.828Z,95550.30
2017-12-22T02:28:31.500Z,95550.46
2017-12-22T02:30:59.754Z,95544.34
2017-12-22T02:33:29.115Z,95546.67
2017-12-22T02:35:56.829Z,95546.09
2017-12-22T02:38:24.512Z,95548.59
2017-12-22T02:40:52.297Z,95545.69
2017-12-22T02:43:19.977Z,95546.62
2017-12-22T02:45:47.790Z,95544.41
2017-12-22T02:48:15.480Z,95542.55
2017-12-22T02:50:43.227Z,95542.09
2017-12-22T02:53:11.467Z,95542.23
2017-12-22T02:55:39.183Z,95537.91
2017-12-22T02:58:06.905Z,95538.98
2017-12-22T03:00:34.597Z,95539.06
2017-12-22T03:03:02.330Z,95539.33
2017-12-22T03:05:30.002Z,95539.39
2017-12-22T03:07:57.730Z,95531.77
2017-12-22T03:10:25.867Z,95525.96
2017-12-22T03:12:53.579Z,95522.44
2017-12-22T03:15:21.250Z,95529.13
2017-12-22T03:17:49.087Z,95519.48
2017-12-22T03:20:16.759Z,95520.36
2017-12-22T03:22:44.477Z,95531.30
2017-12-22T03:25:12.170Z,95516.66
2017-12-22T03:27:39.888Z,95518.61
2017-12-22T03:30:07.591Z,95516.39
2017-12-22T03:32:35.365Z,95513.95
2017-12-22T03:35:03.556Z,95514.84
2017-12-22T03:37:31.312Z,95506.12
2017-12-22T03:39:59.075Z,95510.77
2017-12-22T03:42:26.919Z,95499.59
2017-12-22T03:44:56.201Z,95504.23
2017-12-22T03:47:23.981Z,95503.56
2017-12-22T03:49:52.376Z,95504.59
2017-12-22T03:52:20.124Z,95501.89
2017-12-22T03:54:48.031Z,95505.71
2017-12-22T03:57:15.788Z,95510.37
2017-12-22T03:59:43.446Z,95508.43
2017-12-22T04:02:11.469Z,95505.26
2017-12-22T04:04:39.388Z,95513.28
2017-12-22T04:07:07.105Z,95514.70
2017-12-22T04:09:34.773Z,95515.52
2017-12-22T04:12:03.345Z,95512.13
2017-12-22T04:14:31.104Z,95509.45
2017-12-22T04:16:58.785Z,95510.64
2017-12-22T04:19:26.641Z,95512.41
2017-12-22T04:21:54.399Z,95509.64
2017-12-22T04:24:22.231Z,95515.39
2017-12-22T04:26:49.895Z,95514.64
2017-12-22T04:29:17.610Z,95512.41
2017-12-22T04:31:45.351Z,95512.47
2017-12-22T04:34:13.852Z,95520.64
2017-12-22T04:36:41.819Z,95512.81
2017-12-22T04:39:10.295Z,95513.48
2017-12-22T04:41:37.992Z,95510.05
2017-12-22T04:44:05.748Z,95510.79
2017-12-22T04:46:33.425Z,95515.70
2017-12-22T04:49:01.254Z,95518.61
2017-12-22T04:51:29.121Z,95513.20
2017-12-22T04:53:56.790Z,95507.54
2017-12-22T04:56:24.533Z,95510.84
2017-12-22T04:58:52.211Z,95513.34
2017-12-22T05:01:19.949Z,95509.63
2017-12-22T05:03:47.685Z,95505.78
2017-12-22T05:06:15.608Z,95508.08
2017-12-22T05:08:43.335Z,95511.87
2017-12-22T05:11:11.936Z,95514.09
2017-12-22T05:13:39.660Z,95513.07
2017-12-22T05:16:07.360Z,95516.11
2017-12-22T05:18:35.056Z,95513.77
2017-12-22T05:21:02.813Z,95513.23
2017-12-22T05:23:30.528Z,95507.83
2017-12-22T05:25:58.238Z,95511.86
2017-12-22T05:28:25.981Z,95519.83
2017-12-22T05:30:53.720Z,95514.34
2017-12-22T05:33:21.465Z,95516.80
2017-12-22T05:35:49.186Z,95513.56
2017-12-22T05:38:18.083Z,95509.63
2017-12-22T05:40:46.546Z,95507.88
2017-12-22T05:43:14.230Z,95508.03
2017-12-22T05:45:41.959Z,95510.50
2017-12-22T05:48:09.620Z,95508.03
2017-12-22T05:50:37.396Z,95511.73
2017-12-22T05:53:05.068Z,95513.41
2017-12-22T05:55:32.817Z,95512.13
2017-12-22T05:58:00.480Z,95508.81
2017-12-22T06:00:28.231Z,95509.24
2017-12-22T06:02:55.994Z,95510.77
2017-12-22T06:05:23.768Z,95511.19
2017-12-22T06:07:51.594Z,95505.66
2017-12-22T06:10:19.366Z,95503.08
2017-12-22T06:12:47.300Z,95500.03
2017-12-22T06:15:15.078Z,95503.42
2017-12-22T06:17:42.827Z,95502.41
2017-12-22T06:20:10.631Z,95503.22
2017-12-22T06:22:39.180Z,95502.67
2017-12-22T06:25:08.148Z,95504.30
2017-12-22T06:27:37.069Z,95502.61
2017-12-22T06:30:04.886Z,95504.56
2017-12-22T06:32:32.621Z,95503.63
2017-12-22T06:35:00.339Z,95502.47
2017-12-22T06:37:28.087Z,95505.71
2017-12-22T06:39:55.847Z,95496.95
2017-12-22T06:42:23.529Z,95493.58
2017-12-22T06:44:51.288Z,95499.78
2017-12-22T06:47:19.368Z,95495.67
2017-12-22T06:49:47.086Z,95497.97
2017-12-22T06:52:15.015Z,95496.82
2017-12-22T06:54:43.053Z,95498.98
2017-12-22T06:57:11.296Z,95497.96
2017-12-22T06:59:40.055Z,95489.11
2017-12-22T07:02:09.468Z,95499.53
2017-12-22T07:04:37.220Z,95499.72
2017-12-22T07:07:04.951Z,95507.41
2017-12-22T07:09:32.692Z,95512.14
2017-12-22T07:12:00.433Z,95515.92
2017-12-22T07:14:28.116Z,95514.09
2017-12-22T07:16:55.843Z,95517.27
2017-12-22T07:19:23.533Z,95517.20
2017-12-22T07:21:51.300Z,95512.28
2017-12-22T07:24:19.203Z,95517.38
2017-12-22T07:26:46.899Z,95509.16
2017-12-22T07:29:14.625Z,95507.67
2017-12-22T07:31:42.296Z,95511.65
2017-12-22T07:34:10.013Z,95511.06
2017-12-22T07:36:37.785Z,95510.52
2017-12-22T07:39:05.691Z,95514.98
2017-12-22T07:41:33.476Z,95518.47
2017-12-22T07:44:01.252Z,95512.53
2017-12-22T07:46:29.068Z,95518.38
2017-12-22T07:48:56.821Z,95515.14
2017-12-22T07:51:24.698Z,95526.69
2017-12-22T07:53:52.475Z,95527.70
2017-12-22T07:56:20.803Z,95527.43
2017-12-22T07:58:48.658Z,95529.12
2017-12-22T08:01:16.486Z,95526.48
2017-12-22T08:03:44.238Z,95520.00
2017-12-22T08:06:12.158Z,95529.11
2017-12-22T08:08:39.845Z,95534.66
2017-12-22T08:11:08.581Z,95528.98
2017-12-22T08:13:36.327Z,95532.23
2017-12-22T08:16:04.241Z,95529.59
2017-12-22T08:18:32.027Z,95529.32
2017-12-22T08:20:59.727Z,95533.10
2017-12-22T08:23:27.484Z,95532.98
2017-12-22T08:25:55.197Z,95532.86
2017-12-22T08:28:22.941Z,95542.31
2017-12-22T08:30:50.802Z,95534.72
2017-12-22T08:33:18.554Z,95534.72
2017-12-22T08:35:46.281Z,95540.53
2017-12-22T08:38:14.020Z,95538.17
2017-12-22T08:40:41.743Z,95543.16
2017-12-22T08:43:09.450Z,95539.52
2017-12-22T08:45:37.212Z,95539.86
2017-12-22T08:48:05.533Z,95539.92
2017-12-22T08:50:33.225Z,95538.38
2017-12-22T08:53:02.071Z,95535.88
2017-12-22T08:55:29.856Z,95531.55
2017-12-22T08:57:57.587Z,95533.14
2017-12-22T09:00:25.367Z,95541.14
2017-12-22T09:02:53.050Z,95539.48
2017-12-22T09:05:21.530Z,95541.92
2017-12-22T09:07:50.064Z,95546.89
2017-12-22T09:10:17.804Z,95552.58
2017-12-22T09:12:45.704Z,95551.54
2017-12-22T09:15:13.409Z,95553.22
2017-12-22T09:17:41.115Z,95561.06
2017-12-22T09:20:09.682Z,95553.46
2017-12-22T09:22:37.424Z,95556.90
2017-12-22T09:25:05.221Z,95551.69
2017-12-22T09:27:32.959Z,95553.39
2017-12-22T09:30:00.681Z,95560.29
2017-12-22T09:32:29.964Z,95559.34
2017-12-22T09:34:57.673Z,95555.88
2017-12-22T09:37:25.746Z,95550.95
2017-12-22T09:39:53.475Z,95547.23
2017-12-22T09:42:21.257Z,95544.65
2017-12-22T09:44:49.183Z,95542.10
2017-12-22T09:47:16.978Z,95536.20
2017-12-22T09:49:45.863Z,95545.61
2017-12-22T09:52:13.626Z,95539.38
2017-12-22T09:54:41.338Z,95534.47
2017-12-22T09:57:09.148Z,95538.56
2017-12-22T09:59:37.796Z,95534.66
2017-12-22T10:02:06.254Z,95530.75
2017-12-22T10:04:34.582Z,95537.16
2017-12-22T10:07:02.348Z,95522.29
2017-12-22T10:09:30.050Z,95525.13
2017-12-22T10:11:58.018Z,95523.48
2017-12-22T10:14:25.765Z,95514.98
2017-12-22T10:16:54.659Z,95513.22
2017-12-22T10:19:22.346Z,95513.41
2017-12-22T10:21:50.141Z,95504.97
2017-12-22T10:24:18.054Z,95502.41
2017-12-22T10:26:45.828Z,95508.43
2017-12-22T10:29:13.594Z,95499.84
2017-12-22T10:31:41.307Z,95496.84
2017-12-22T10:34:09.432Z,95490.80
2017-12-22T10:36:37.186Z,95498.33
2017-12-22T10:39:05.013Z,95488.36
2017-12-22T10:41:33.695Z,95483.89
2017-12-22T10:44:01.926Z,95487.36
2017-12-22T10:46:30.694Z,95483.91
2017-12-22T10:48:59.370Z,95479.72
2017-12-22T10:51:27.158Z,95471.99
2017-12-22T10:53:54.942Z,95470.66
2017-12-22T10:56:22.652Z,95466.94
2017-12-22T10:58:50.408Z,95461.36
2017-12-22T11:01:18.145Z,95460.07
2017-12-22T11:03:45.982Z,95458.73
2017-12-22T11:06:13.797Z,95460.02
2017-12-22T11:08:42.441Z,95451.94
2017-12-22T11:11:10.209Z,95455.61
2017-12-22T11:13:38.019Z,95440.81
2017-12-22T11:16:05.763Z,95430.52
2017-12-22T11:18:33.484Z,95442.17
2017-12-22T11:21:01.176Z,95440.84
2017-12-22T11:23:28.925Z,95434.08
2017-12-22T11:25:56.648Z,95429.47
2017-12-22T11:28:24.414Z,95419.17
2017-12-22T11:30:52.192Z,95422.64
2017-12-22T11:33:19.889Z,95427.37
2017-12-22T11:35:47.658Z,95425.05
2017-12-22T11:38:15.354Z,95420.64
2017-12-22T11:40:43.098Z,95420.78
2017-12-22T11:43:11.858Z,95418.84
2017-12-22T11:45:39.649Z,95412.23
2017-12-22T11:48:07.436Z,95407.97
2017-12-22T11:50:35.105Z,95405.54
2017-12-22T11:53:02.899Z,95393.56
2017-12-22T11:55:30.645Z,95392.82
2017-12-22T11:57:58.353Z,95389.59
2017-12-22T12:00:26.118Z,95378.64
2017-12-22T12:02:55.048Z,95379.12
2017-12-22T12:05:22.958Z,95374.59
2017-12-22T12:07:50.629Z,95366.33
2017-12-22T12:10:18.486Z,95362.21
2017-12-22T12:12:48.019Z,95365.52
2017-12-22T12:15:15.770Z,95357.84
2017-12-22T12:17:43.513Z,95363.23
2017-12-22T12:20:11.275Z,95364.72
2017-12-22T12:22:39.452Z,95364.93
2017-12-22T12:25:08.342Z,95362.83
2017-12-22T12:27:36.150Z,95368.48
2017-12-22T12:30:04.077Z,95372.09
2017-12-22T12:32:32.765Z,95363.67
2017-12-22T12:35:00.534Z,95358.27
2017-12-22T12:37:28.321Z,95366.20
2017-12-22T12:39:56.082Z,95360.84
2017-12-22T12:42:23.839Z,95360.33
2017-12-22T12:44:51.557Z,95361.77
2017-12-22T12:47:19.351Z,95367.66
2017-12-22T12:49:47.064Z,95367.51
2017-12-22T12:52:14.781Z,95368.46
2017-12-22T12:54:42.543Z,95358.43
2017-12-22T12:57:10.342Z,95363.42
2017-12-22T12:59:38.090Z,95366.66
2017-12-22T13:02:05.904Z,95361.59
2017-12-22T13:04:33.786Z,95361.70
2017-12-22T13:07:01.553Z,95369.45
2017-12-22T13:09:29.339Z,95358.83
2017-12-22T13:11:57.112Z,95351.23
2017-12-22T13:14:24.889Z,95359.90
2017-12-22T13:16:52.656Z,95361.84
2017-12-22T13:19:20.333Z,95355.78
2017-12-22T13:21:48.083Z,95350.86
2017-12-22T13:24:15.812Z,95346.08
2017-12-22T13:26:43.603Z,95351.06
2017-12-22T13:29:11.334Z,95354.45
2017-12-22T13:31:39.188Z,95364.29
2017-12-22T13:34:06.926Z,95358.94
2017-12-22T13:36:34.690Z,95359.34
2017-12-22T13:39:02.495Z,95357.42
2017-12-22T13:41:30.247Z,95357.75
2017-12-22T13:43:58.079Z,95356.09
2017-12-22T13:46:25.901Z,95354.20
2017-12-22T13:48:53.992Z,95350.09
2017-12-22T13:51:22.059Z,95349.09
2017-12-22T13:53:50.950Z,95349.58
2017-12-22T13:56:19.658Z,95353.84
2017-12-22T13:58:47.440Z,95350.71
2017-12-22T14:01:15.275Z,95345.50
2017-12-22T14:03:43.156Z,95351.67
2017-12-22T14:06:10.987Z,95356.66
2017-12-22T14:08:38.962Z,95350.05
2017-12-22T14:11:06.880Z,95348.42
2017-12-22T14:13:34.823Z,95350.63
2017-12-22T14:16:02.591Z,95354.70
2017-12-22T14:18:30.342Z,95350.70
2017-12-22T14:20:58.108Z,95356.11
2017-12-22T14:23:25.825Z,95351.77
2017-12-22T14:25:53.569Z,95347.03
2017-12-22T14:28:21.335Z,95349.27
2017-12-22T14:30:49.068Z,95352.66
2017-12-22T14:33:16.780Z,95357.00
2017-12-22T14:35:45.569Z,95353.72
2017-12-22T14:38:13.327Z,95360.20
2017-12-22T14:40:41.040Z,95357.61
2017-12-22T14:43:08.830Z,95367.51
2017-12-22T14:45:36.579Z,95368.31
2017-12-22T14:48:04.329Z,95367.69
2017-12-22T14:50:32.047Z,95368.30
2017-12-22T14:52:59.851Z,95375.28
2017-12-22T14:55:27.570Z,95378.11
2017-12-22T14:57:55.389Z,95369.85
2017-12-22T15:00:23.084Z,95373.94
2017-12-22T15:02:50.854Z,95371.78
2017-12-22T15:05:18.582Z,95377.02
2017-12-22T15:07:46.340Z,95371.33
2017-12-22T15:10:14.923Z,95374.92
2017-12-22T15:12:42.671Z,95373.63
2017-12-22T15:15:10.434Z,95372.20
2017-12-22T15:17:38.216Z,95377.77
2017-12-22T15:20:05.986Z,95377.62
2017-12-22T15:22:33.760Z,95373.02
2017-12-22T15:25:01.482Z,95366.34
2017-12-22T15:27:29.313Z,95360.81
2017-12-22T15:29:57.104Z,95371.95
2017-12-22T15:32:24.899Z,95369.73
2017-12-22T15:34:52.627Z,95371.38
2017-12-22T15:37:20.440Z,95367.14
2017-12-22T15:39:48.159Z,95376.58
2017-12-22T15:42:15.931Z,95367.87
2017-12-22T15:44:44.877Z,95370.11
2017-12-22T15:47:12.728Z,95373.48
2017-12-22T15:49:40.527Z,95377.80
2017-12-22T15:52:08.361Z,95383.67
2017-12-22T15:54:36.221Z,95377.47
2017-12-22T15:57:04.033Z,95378.77
2017-12-22T15:59:32.862Z,95387.92
2017-12-22T16:02:00.633Z,95383.97
2017-12-22T16:04:28.364Z,95377.94
2017-12-22T16:06:56.112Z,95383.81
2017-12-22T16:09:24.660Z,95386.19
2017-12-22T16:11:52.439Z,95392.08
2017-12-22T16:14:20.223Z,95383.97
2017-12-22T16:16:48.875Z,95385.23
2017-12-22T16:19:16.574Z,95391.25
2017-12-22T16:21:44.340Z,95388.48
2017-12-22T16:24:12.041Z,95383.58
2017-12-22T16:26:39.781Z,95396.27
2017-12-22T16:29:07.585Z,95396.55
2017-12-22T16:31:35.383Z,95392.42
2017-12-22T16:34:03.174Z,95406.34
2017-12-22T16:36:30.889Z,95400.94
2017-12-22T16:38:58.686Z,95407.34
2017-12-22T16:41:26.482Z,95391.74
2017-12-22T16:43:54.455Z,95381.27
2017-12-22T16:46:22.208Z,95391.94
2017-12-22T16:48:49.964Z,95389.48
2017-12-22T16:51:17.706Z,95394.19
2017-12-22T16:53:45.511Z,95389.41
2017-12-22T16:56:13.231Z,95396.70
2017-12-22T16:58:40.928Z,95402.80
2017-12-22T17:01:08.685Z,95405.11
2017-12-22T17:03:36.455Z,95403.05
2017-12-22T17:06:04.213Z,95409.94
2017-12-22T17:08:31.983Z,95404.25
2017-12-22T17:10:59.701Z,95406.83
2017-12-22T17:13:27.562Z,95402.57
2017-12-22T17:15:55.433Z,95394.25
2017-12-22T17:18:23.181Z,95403.59
2017-12-22T17:20:50.973Z,95399.22
2017-12-22T17:23:18.749Z,95395.30
2017-12-22T17:25:46.550Z,95407.88
2017-12-22T17:28:14.408Z,95404.86
2017-12-22T17:30:42.255Z,95402.61
2017-12-22T17:33:10.155Z,95398.98
2017-12-22T17:35:37.879Z,95400.47
2017-12-22T17:38:05.639Z,95409.05
2017-12-22T17:40:33.368Z,95410.22
2017-12-22T17:43:01.142Z,95411.70
2017-12-22T17:45:28.897Z,95419.05
2017-12-22T17:47:56.837Z,95420.59
2017-12-22T17:50:24.663Z,95416.01
2017-12-22T17:52:52.474Z,95412.76
2017-12-22T17:55:20.230Z,95419.26
2017-12-22T17:57:48.148Z,95423.97
2017-12-22T18:00:15.921Z,95417.63
2017-12-22T18:02:43.630Z,95401.81
2017-12-22T18:05:11.479Z,95402.56
2017-12-22T18:07:39.269Z,95411.08
2017-12-22T18:10:07.268Z,95412.69
2017-12-22T18:12:35.081Z,95414.18
2017-12-22T18:15:02.807Z,95406.74
2017-12-22T18:17:30.605Z,95417.81
2017-12-22T18:19:58.329Z,95417.16
2017-12-22T18:24:59.859Z,95413.70
2017-12-22T18:27:27.636Z,95412.91
2017-12-22T18:29:55.375Z,95403.44
2017-12-22T18:32:23.114Z,95408.86
2017-12-22T18:34:50.921Z,95408.56
2017-12-22T18:37:18.681Z,95411.02
2017-12-22T18:39:46.405Z,95413.23
2017-12-22T18:42:14.165Z,95419.25
2017-12-22T18:44:41.946Z,95422.81
2017-12-22T18:47:09.646Z,95422.28
2017-12-22T18:49:37.339Z,95423.52
2017-12-22T18:52:05.203Z,95426.95
2017-12-22T18:54:32.911Z,95428.09
2017-12-22T18:57:00.612Z,95425.12
2017-12-22T18:59:28.427Z,95425.26
2017-12-22T19:01:56.230Z,95417.57
2017-12-22T19:04:24.010Z,95428.36
2017-12-22T19:06:51.796Z,95423.98
2017-12-22T19:09:20.363Z,95424.66
2017-12-22T19:11:48.131Z,95424.44
2017-12-22T19:14:17.791Z,95431.74
2017-12-22T19:16:45.713Z,95431.95
2017-12-22T19:19:13.552Z,95433.77
2017-12-22T19:21:41.368Z,95429.97
2017-12-22T19:24:09.169Z,95430.20
2017-12-22T19:26:36.898Z,95422.97
2017-12-22T19:29:04.682Z,95428.61
2017-12-22T19:31:32.527Z,95423.51
2017-12-22T19:34:00.424Z,95427.28
2017-12-22T19:36:28.242Z,95421.59
2017-12-22T19:38:56.134Z,95433.55
2017-12-22T19:41:23.937Z,95433.50
2017-12-22T19:43:51.896Z,95431.49
2017-12-22T19:46:19.737Z,95442.23
2017-12-22T19:48:47.573Z,95441.61
2017-12-22T19:51:15.448Z,95444.11
2017-12-22T19:53:43.251Z,95451.25
2017-12-22T19:56:11.084Z,95451.41
2017-12-22T19:58:38.860Z,95446.88
2017-12-22T20:01:06.627Z,95451.67
2017-12-22T20:03:34.399Z,95452.28
2017-12-22T20:06:02.570Z,95448.04
2017-12-22T20:08:30.278Z,95454.52
2017-12-22T20:10:58.150Z,95458.71
2017-12-22T20:13:26.086Z,95471.31
2017-12-22T20:15:54.816Z,95473.51
2017-12-22T20:18:22.596Z,95477.90
2017-12-22T20:20:51.000Z,95468.72
2017-12-22T20:23:18.771Z,95471.99
2017-12-22T20:25:47.239Z,95476.38
2017-12-22T20:28:14.956Z,95484.95
2017-12-22T20:30:42.788Z,95478.34
2017-12-22T20:33:10.626Z,95477.29
2017-12-22T20:35:38.430Z,95475.47
2017-12-22T20:38:06.188Z,95481.61
2017-12-22T20:40:33.958Z,95479.86
2017-12-22T20:43:01.844Z,95494.55
2017-12-22T20:45:30.803Z,95484.21
2017-12-22T20:47:58.672Z,95485.16
2017-12-22T20:50:26.505Z,95467.66
2017-12-22T20:52:54.411Z,95474.22
2017-12-22T20:55:22.626Z,95477.52
2017-12-22T20:57:51.355Z,95473.61
2017-12-22T21:00:19.362Z,95473.87
2017-12-22T21:02:47.266Z,95469.73
2017-12-22T21:05:15.011Z,95476.62
2017-12-22T21:07:43.298Z,95471.63
2017-12-22T21:10:11.092Z,95480.33
2017-12-22T21:12:38.868Z,95477.53
2017-12-22T21:15:06.742Z,95478.75
2017-12-22T21:17:34.589Z,95474.05
2017-12-22T21:20:02.298Z,95478.48
2017-12-22T21:22:30.106Z,95482.13
2017-12-22T21:24:57.877Z,95481.45
2017-12-22T21:27:25.615Z,95483.64
2017-12-22T21:29:53.388Z,95486.60
2017-12-22T21:32:21.152Z,95491.33
2017-12-22T21:34:48.916Z,95493.83
2017-12-22T21:37:17.981Z,95493.62
2017-12-22T21:39:45.690Z,95489.98
2017-12-22T21:42:13.452Z,95488.11
2017-12-22T21:44:41.280Z,95485.41
2017-12-22T21:47:09.347Z,95484.69
2017-12-22T21:49:38.678Z,95489.52
2017-12-22T21:52:10.061Z,95493.91
2017-12-22T21:54:39.113Z,95479.36
2017-12-22T21:57:06.984Z,95483.78
2017-12-22T21:59:36.812Z,95489.86
2017-12-22T22:02:05.336Z,95488.97
2017-12-22T22:04:33.113Z,95493.62
2017-12-22T22:07:01.031Z,95499.13
2017-12-22T22:09:28.861Z,95499.81
2017-12-22T22:11:56.813Z,95506.02
2017-12-22T22:14:24.617Z,95516.48
2017-12-22T22:16:52.526Z,95512.86
2017-12-22T22:19:20.282Z,95514.28
2017-12-22T22:21:48.231Z,95506.05
2017-12-22T22:24:16.054Z,95504.90
2017-12-22T22:26:43.810Z,95507.40
2017-12-22T22:29:11.512Z,95510.64
2017-12-22T22:31:39.277Z,95512.14
2017-12-22T22:34:07.059Z,95518.14
2017-12-22T22:36:34.952Z,95513.96
2017-12-22T22:39:02.757Z,95513.02
2017-12-22T22:41:30.487Z,95516.91
2017-12-22T22:43:58.248Z,95521.16
2017-12-22T22:46:25.983Z,95511.99
2017-12-22T22:48:53.751Z,95514.10
2017-12-22T22:51:21.664Z,95518.47
2017-12-22T22:53:49.420Z,95513.42
2017-12-22T22:56:17.145Z,95511.18
2017-12-22T22:58:44.873Z,95505.78
2017-12-22T23:01:12.674Z,95506.13
2017-12-22T23:03:40.502Z,95507.39
2017-12-22T23:06:08.320Z,95509.83
2017-12-22T23:08:36.134Z,95506.05
2017-12-22T23:11:03.857Z,95505.50
2017-12-22T23:13:31.673Z,95497.27
2017-12-22T23:15:59.356Z,95500.72
2017-12-22T23:18:27.113Z,95501.73
2017-12-22T23:20:54.924Z,95501.70
2017-12-22T23:23:22.644Z,95497.85
2017-12-22T23:25:50.424Z,95506.63
2017-12-22T23:28:18.178Z,95505.22
2017-12-22T23:30:45.864Z,95511.63
2017-12-22T23:33:13.619Z,95500.69
2017-12-22T23:35:41.398Z,95494.34
2017-12-22T23:38:09.118Z,95508.12
2017-12-22T23:40:36.845Z,95515.88
2017-12-22T23:43:04.510Z,95517.20
2017-12-22T23:45:32.242Z,95507.74
2017-12-22T23:48:00.000Z,95508.02
2017-12-22T23:50:27.689Z,95501.84
2017-12-22T23:52:55.411Z,95510.68
2017-12-22T23:55:23.087Z,95507.00
2017-12-22T23:57:50.835Z,95505.38
